createdAt,value
2019-01-17T00:00:09.973Z,13.73
2019-01-17T00:01:32.316Z,15.10
2019-01-17T00:02:54.498Z,13.33
2019-01-17T00:04:19.757Z,14.40
2019-01-17T00:05:40.224Z,12.77
2019-01-17T00:07:03.675Z,16.13
2019-01-17T00:08:26.990Z,17.87
2019-01-17T00:09:50.254Z,16.37
2019-01-17T00:11:09.469Z,16.07
2019-01-17T00:12:39.036Z,14.60
2019-01-17T00:14:03.188Z,13.87
2019-01-17T00:15:26.109Z,14.53
2019-01-17T00:16:41.693Z,15.73
2019-01-17T00:18:01.026Z,15.77
2019-01-17T00:19:29.132Z,17.73
2019-01-17T00:20:47.688Z,16.73
2019-01-17T00:22:14.041Z,15.60
2019-01-17T00:23:43.013Z,15.57
2019-01-17T00:25:04.696Z,15.77
2019-01-17T00:26:24.177Z,15.77
2019-01-17T00:27:35.762Z,16.20
2019-01-17T00:29:11.066Z,16.63
2019-01-17T00:30:36.777Z,13.50
2019-01-17T00:31:51.733Z,17.90
2019-01-17T00:33:12.903Z,13.60
2019-01-17T00:34:34.822Z,13.37
2019-01-17T00:36:01.291Z,15.40
2019-01-17T00:37:30.494Z,15.47
2019-01-17T00:38:58.497Z,15.10
2019-01-17T00:40:21.915Z,16.80
2019-01-17T00:41:45.458Z,18.23
2019-01-17T00:43:18.558Z,15.63
2019-01-17T00:44:44.767Z,16.17
2019-01-17T00:46:08.080Z,14.17
2019-01-17T00:47:29.940Z,14.63
2019-01-17T00:49:11.327Z,14.97
2019-01-17T00:50:34.669Z,15.27
2019-01-17T00:51:52.873Z,14.80
2019-01-17T00:53:14.878Z,20.07
2019-01-17T00:54:36.709Z,15.47
2019-01-17T00:55:59.115Z,15.47
2019-01-17T00:57:20.959Z,15.50
2019-01-17T00:58:44.512Z,14.03
2019-01-17T01:00:11.094Z,15.87
2019-01-17T01:01:49.362Z,14.60
2019-01-17T01:03:04.916Z,15.47
2019-01-17T01:04:27.509Z,16.17
2019-01-17T01:05:51.984Z,14.97
2019-01-17T01:07:24.052Z,14.97
2019-01-17T01:08:52.954Z,12.63
2019-01-17T01:10:22.232Z,13.63
2019-01-17T01:11:54.439Z,12.63
2019-01-17T01:13:13.864Z,15.20
2019-01-17T01:14:39.913Z,13.70
2019-01-17T01:16:26.845Z,16.50
2019-01-17T01:17:59.171Z,13.87
2019-01-17T01:19:25.596Z,12.83
2019-01-17T01:20:47.516Z,11.53
2019-01-17T01:22:09.134Z,11.30
2019-01-17T01:23:31.357Z,12.80
2019-01-17T01:24:54.587Z,14.23
2019-01-17T01:26:16.481Z,11.80
2019-01-17T01:27:39.765Z,13.83
2019-01-17T01:28:57.296Z,10.50
2019-01-17T01:30:17.457Z,15.30
2019-01-17T01:31:39.667Z,13.13
2019-01-17T01:32:51.107Z,14.23
2019-01-17T01:34:08.522Z,12.00
2019-01-17T01:35:31.062Z,10.90
2019-01-17T01:36:53.071Z,12.40
2019-01-17T01:38:31.268Z,10.70
2019-01-17T01:40:03.925Z,15.30
2019-01-17T01:41:42.211Z,11.00
2019-01-17T01:43:04.071Z,12.63
2019-01-17T01:44:26.884Z,13.17
2019-01-17T01:45:53.292Z,10.13
2019-01-17T01:47:09.535Z,10.07
2019-01-17T01:48:31.332Z,13.33
2019-01-17T01:49:50.664Z,12.53
2019-01-17T01:51:27.719Z,10.43
2019-01-17T01:52:44.712Z,10.43
2019-01-17T01:53:49.200Z,9.77
2019-01-17T01:54:53.709Z,10.53
2019-01-17T01:55:58.121Z,9.43
2019-01-17T01:57:02.520Z,10.00
2019-01-17T01:58:07.024Z,11.83
2019-01-17T01:59:11.710Z,11.50
2019-01-17T02:00:16.365Z,9.57
2019-01-17T02:01:20.737Z,10.77
2019-01-17T02:02:25.184Z,11.90
2019-01-17T02:03:29.563Z,8.20
2019-01-17T02:04:33.900Z,8.67
2019-01-17T02:05:38.348Z,9.00
2019-01-17T02:06:42.675Z,10.80
2019-01-17T02:07:47.105Z,9.73
2019-01-17T02:08:51.508Z,8.53
2019-01-17T02:09:55.915Z,9.27
2019-01-17T02:11:00.377Z,9.67
2019-01-17T02:12:04.995Z,11.97
2019-01-17T02:13:09.371Z,9.60
2019-01-17T02:14:14.105Z,9.07
2019-01-17T02:15:18.451Z,9.27
2019-01-17T02:16:23.037Z,9.37
2019-01-17T02:17:27.561Z,9.40
2019-01-17T02:18:31.958Z,10.60
2019-01-17T02:19:36.419Z,9.80
2019-01-17T02:20:41.387Z,10.80
2019-01-17T02:21:45.762Z,8.80
2019-01-17T02:22:50.141Z,10.10
2019-01-17T02:23:54.679Z,7.57
2019-01-17T02:24:59.016Z,8.33
2019-01-17T02:26:03.345Z,9.57
2019-01-17T02:27:07.903Z,10.13
2019-01-17T02:28:12.367Z,8.93
2019-01-17T02:29:16.745Z,10.43
2019-01-17T02:30:21.203Z,10.20
2019-01-17T02:31:25.603Z,8.83
2019-01-17T02:32:30.064Z,11.17
2019-01-17T02:33:37.414Z,11.57
2019-01-17T02:34:41.727Z,9.70
2019-01-17T02:35:46.064Z,10.63
2019-01-17T02:36:50.497Z,9.13
2019-01-17T02:37:54.879Z,8.17
2019-01-17T02:38:59.287Z,9.23
2019-01-17T02:40:04.032Z,11.50
2019-01-17T02:41:08.990Z,8.00
2019-01-17T02:42:13.388Z,8.27
2019-01-17T02:43:17.809Z,9.67
2019-01-17T02:44:22.265Z,7.67
2019-01-17T02:45:26.675Z,10.17
2019-01-17T02:46:31.132Z,8.17
2019-01-17T02:47:35.831Z,10.83
2019-01-17T02:48:40.350Z,9.17
2019-01-17T02:49:44.680Z,10.27
2019-01-17T02:50:49.161Z,10.10
2019-01-17T02:51:53.542Z,8.37
2019-01-17T02:52:57.928Z,7.83
2019-01-17T02:54:02.346Z,8.63
2019-01-17T02:55:07.509Z,10.10
2019-01-17T02:56:11.902Z,9.53
2019-01-17T02:57:16.416Z,7.87
2019-01-17T02:58:20.901Z,10.47
2019-01-17T02:59:25.281Z,9.50
2019-01-17T03:00:29.764Z,7.63
2019-01-17T03:01:34.435Z,10.23
2019-01-17T03:02:38.780Z,10.13
2019-01-17T03:03:43.152Z,11.87
2019-01-17T03:04:47.572Z,6.47
2019-01-17T03:05:51.975Z,8.43
2019-01-17T03:06:56.353Z,6.80
2019-01-17T03:08:00.676Z,6.87
2019-01-17T03:09:07.405Z,7.10
2019-01-17T03:10:15.029Z,6.60
2019-01-17T03:11:19.586Z,8.70
2019-01-17T03:12:23.874Z,7.77
2019-01-17T03:13:28.296Z,7.00
2019-01-17T03:14:32.798Z,7.23
2019-01-17T03:15:37.453Z,4.73
2019-01-17T03:16:41.862Z,6.23
2019-01-17T03:17:46.315Z,5.87
2019-01-17T03:18:50.720Z,6.47
2019-01-17T03:19:55.233Z,6.23
2019-01-17T03:20:59.601Z,7.13
2019-01-17T03:22:03.937Z,6.00
2019-01-17T03:23:08.408Z,6.00
2019-01-17T03:24:12.910Z,7.63
2019-01-17T03:25:17.351Z,7.17
2019-01-17T03:26:21.837Z,6.30
2019-01-17T03:27:26.207Z,9.23
2019-01-17T03:28:30.587Z,7.63
2019-01-17T03:29:37.099Z,5.13
2019-01-17T03:30:41.739Z,5.63
2019-01-17T03:31:46.260Z,5.60
2019-01-17T03:32:50.824Z,5.63
2019-01-17T03:33:55.225Z,7.10
2019-01-17T03:34:59.598Z,6.90
2019-01-17T03:36:04.505Z,5.87
2019-01-17T03:37:08.926Z,6.13
2019-01-17T03:38:13.263Z,6.43
2019-01-17T03:39:17.650Z,7.13
2019-01-17T03:40:22.289Z,8.90
2019-01-17T03:41:26.717Z,6.10
2019-01-17T03:42:31.367Z,5.73
2019-01-17T03:43:39.112Z,5.47
2019-01-17T03:44:43.469Z,5.63
2019-01-17T03:45:47.971Z,6.13
2019-01-17T03:46:52.380Z,5.40
2019-01-17T03:47:56.849Z,4.87
2019-01-17T03:49:01.390Z,6.03
2019-01-17T03:50:07.125Z,5.83
2019-01-17T03:51:11.621Z,5.43
2019-01-17T03:52:16.190Z,4.90
2019-01-17T03:53:20.541Z,5.37
2019-01-17T03:54:24.944Z,7.07
2019-01-17T03:55:29.474Z,7.17
2019-01-17T03:56:34.079Z,4.73
2019-01-17T03:57:38.551Z,6.63
2019-01-17T03:58:42.960Z,5.00
2019-01-17T03:59:47.473Z,5.67
2019-01-17T04:00:51.909Z,5.60
2019-01-17T04:01:56.498Z,6.90
2019-01-17T04:03:01.077Z,6.30
2019-01-17T04:04:05.438Z,6.00
2019-01-17T04:05:09.907Z,6.30
2019-01-17T04:06:14.269Z,5.50
2019-01-17T04:07:18.804Z,6.57
2019-01-17T04:08:23.168Z,4.73
2019-01-17T04:09:27.501Z,5.10
2019-01-17T04:10:31.854Z,6.33
2019-01-17T04:11:36.451Z,5.80
2019-01-17T04:12:43.873Z,4.57
2019-01-17T04:13:48.400Z,6.50
2019-01-17T04:14:52.723Z,6.60
2019-01-17T04:15:57.085Z,6.40
2019-01-17T04:17:01.538Z,8.40
2019-01-17T04:18:06.163Z,5.77
2019-01-17T04:19:10.671Z,7.03
2019-01-17T04:20:18.698Z,7.43
2019-01-17T04:21:23.184Z,6.80
2019-01-17T04:22:27.576Z,6.63
2019-01-17T04:23:32.077Z,7.70
2019-01-17T04:24:36.427Z,8.67
2019-01-17T04:25:40.802Z,6.20
2019-01-17T04:26:45.126Z,8.10
2019-01-17T04:27:49.625Z,5.90
2019-01-17T04:28:53.960Z,7.00
2019-01-17T04:29:58.454Z,7.33
2019-01-17T04:31:02.882Z,8.07
2019-01-17T04:32:07.360Z,8.10
2019-01-17T04:33:11.823Z,7.73
2019-01-17T04:34:16.180Z,6.13
2019-01-17T04:35:20.686Z,6.37
2019-01-17T04:36:25.185Z,7.17
2019-01-17T04:37:29.605Z,9.40
2019-01-17T04:38:34.006Z,7.40
2019-01-17T04:39:38.449Z,8.33
2019-01-17T04:40:42.931Z,7.20
2019-01-17T04:41:47.371Z,9.27
2019-01-17T04:42:51.700Z,8.07
2019-01-17T04:43:56.092Z,7.77
2019-01-17T04:45:00.475Z,7.30
2019-01-17T04:46:04.864Z,9.83
2019-01-17T04:47:09.504Z,8.67
2019-01-17T04:48:14.072Z,9.27
2019-01-17T04:49:18.496Z,9.93
2019-01-17T04:50:22.859Z,9.03
2019-01-17T04:51:27.313Z,10.57
2019-01-17T04:52:31.973Z,10.17
2019-01-17T04:53:36.759Z,7.67
2019-01-17T04:54:41.412Z,9.53
2019-01-17T04:55:46.092Z,11.03
2019-01-17T04:56:50.530Z,7.60
2019-01-17T04:57:54.971Z,8.47
2019-01-17T04:58:59.371Z,7.83
2019-01-17T05:00:04.419Z,6.97
2019-01-17T05:01:08.980Z,8.57
2019-01-17T05:02:13.845Z,9.27
2019-01-17T05:03:18.161Z,7.00
2019-01-17T05:04:22.753Z,9.77
2019-01-17T05:05:27.150Z,8.87
2019-01-17T05:06:31.740Z,9.37
2019-01-17T05:07:36.277Z,9.63
2019-01-17T05:08:40.738Z,9.67
2019-01-17T05:09:45.420Z,10.60
2019-01-17T05:10:49.795Z,10.47
2019-01-17T05:11:54.355Z,8.90
2019-01-17T05:12:58.793Z,9.43
2019-01-17T05:14:03.417Z,9.23
2019-01-17T05:15:08.012Z,8.90
2019-01-17T05:16:13.127Z,9.27
2019-01-17T05:17:17.502Z,9.17
2019-01-17T05:18:22.106Z,9.03
2019-01-17T05:19:26.481Z,10.90
2019-01-17T05:20:31.993Z,6.70
2019-01-17T05:21:36.653Z,11.73
2019-01-17T05:22:41.151Z,9.70
2019-01-17T05:23:45.701Z,9.47
2019-01-17T05:24:50.144Z,8.97
2019-01-17T05:25:54.641Z,10.20
2019-01-17T05:26:59.139Z,11.70
2019-01-17T05:28:03.545Z,10.27
2019-01-17T05:29:08.006Z,10.57
2019-01-17T05:30:15.494Z,11.63
2019-01-17T05:31:19.948Z,11.43
2019-01-17T05:32:24.476Z,9.57
2019-01-17T05:33:28.959Z,9.23
2019-01-17T05:34:39.259Z,8.73
2019-01-17T05:35:39.578Z,9.13
2019-01-17T05:36:44.186Z,9.57
2019-01-17T05:37:48.699Z,10.57
2019-01-17T05:38:53.198Z,9.57
2019-01-17T05:39:57.645Z,10.53
2019-01-17T05:41:02.676Z,10.03
2019-01-17T05:42:07.596Z,10.70
2019-01-17T05:43:12.446Z,10.57
2019-01-17T05:44:16.980Z,9.17
2019-01-17T05:45:21.575Z,10.60
2019-01-17T05:46:26.104Z,9.00
2019-01-17T05:47:30.653Z,10.53
2019-01-17T05:48:35.303Z,8.93
2019-01-17T05:49:39.699Z,9.50
2019-01-17T05:50:44.113Z,10.87
2019-01-17T05:51:48.502Z,10.53
2019-01-17T05:52:53.130Z,10.10
2019-01-17T05:53:57.779Z,9.53
2019-01-17T05:55:02.153Z,8.47
2019-01-17T05:56:06.492Z,8.83
2019-01-17T05:57:10.957Z,10.97
2019-01-17T05:58:15.727Z,11.03
2019-01-17T05:59:20.101Z,11.47
2019-01-17T06:00:24.597Z,9.33
2019-01-17T06:01:29.032Z,9.43
2019-01-17T06:02:33.511Z,12.07
2019-01-17T06:03:38.065Z,10.23
2019-01-17T06:04:42.669Z,12.43
2019-01-17T06:05:47.036Z,10.43
2019-01-17T06:06:51.444Z,13.00
2019-01-17T06:07:55.996Z,10.73
2019-01-17T06:09:00.524Z,11.93
2019-01-17T06:10:05.773Z,11.70
2019-01-17T06:11:10.354Z,9.40
2019-01-17T06:12:15.014Z,11.03
2019-01-17T06:13:19.481Z,11.00
2019-01-17T06:14:24.024Z,10.93
2019-01-17T06:15:28.661Z,12.77
2019-01-17T06:16:33.173Z,12.87
2019-01-17T06:17:37.757Z,15.17
2019-01-17T06:18:42.140Z,10.90
2019-01-17T06:19:46.634Z,14.13
2019-01-17T06:20:50.972Z,12.13
2019-01-17T06:21:55.814Z,12.37
2019-01-17T06:23:00.235Z,11.97
2019-01-17T06:24:04.821Z,13.67
2019-01-17T06:25:09.259Z,13.43
2019-01-17T06:26:14.056Z,11.37
2019-01-17T06:27:18.467Z,14.37
2019-01-17T06:28:23.079Z,11.67
2019-01-17T06:29:27.502Z,12.20
2019-01-17T06:30:31.900Z,13.40
2019-01-17T06:31:36.374Z,14.77
2019-01-17T06:32:40.877Z,13.90
2019-01-17T06:33:45.427Z,13.17
2019-01-17T06:34:49.849Z,12.63
2019-01-17T06:35:54.229Z,12.97
2019-01-17T06:36:58.729Z,12.77
2019-01-17T06:38:04.381Z,13.53
2019-01-17T06:39:09.493Z,15.53
2019-01-17T06:40:23.264Z,14.07
2019-01-17T06:41:27.882Z,15.00
2019-01-17T06:42:32.311Z,15.93
2019-01-17T06:43:36.736Z,18.83
2019-01-17T06:44:41.164Z,14.50
2019-01-17T06:45:45.715Z,14.07
2019-01-17T06:46:50.566Z,13.53
2019-01-17T06:47:55.244Z,15.87
2019-01-17T06:48:59.807Z,13.60
2019-01-17T06:50:04.594Z,14.43
2019-01-17T06:51:11.163Z,15.67
2019-01-17T06:52:15.885Z,14.93
2019-01-17T06:53:20.423Z,14.97
2019-01-17T06:54:25.049Z,14.50
2019-01-17T06:55:34.369Z,16.77
2019-01-17T06:56:35.742Z,16.43
2019-01-17T06:57:42.801Z,16.83
2019-01-17T06:58:47.249Z,14.77
2019-01-17T06:59:51.753Z,16.50
2019-01-17T07:00:56.158Z,14.07
2019-01-17T07:02:00.693Z,14.30
2019-01-17T07:03:05.409Z,15.93
2019-01-17T07:04:09.974Z,16.10
2019-01-17T07:05:14.925Z,15.67
2019-01-17T07:06:19.564Z,15.73
2019-01-17T07:07:24.147Z,17.90
2019-01-17T07:08:28.558Z,17.80
2019-01-17T07:09:32.999Z,17.07
2019-01-17T07:10:37.437Z,16.17
2019-01-17T07:11:41.967Z,18.43
2019-01-17T07:12:46.771Z,17.93
2019-01-17T07:13:51.131Z,15.40
2019-01-17T07:14:55.546Z,16.20
2019-01-17T07:15:59.971Z,18.37
2019-01-17T07:17:04.328Z,18.47
2019-01-17T07:18:08.896Z,15.87
2019-01-17T07:19:13.448Z,16.27
2019-01-17T07:20:18.967Z,17.93
2019-01-17T07:21:23.472Z,15.40
2019-01-17T07:22:27.882Z,16.23
2019-01-17T07:23:32.380Z,16.70
2019-01-17T07:24:36.780Z,18.27
2019-01-17T07:25:41.726Z,16.33
2019-01-17T07:26:46.127Z,16.90
2019-01-17T07:27:50.675Z,14.37
2019-01-17T07:28:55.079Z,15.63
2019-01-17T07:29:59.613Z,15.27
2019-01-17T07:31:04.046Z,15.40
2019-01-17T07:32:08.409Z,16.37
2019-01-17T07:33:13.067Z,15.40
2019-01-17T07:34:17.637Z,19.43
2019-01-17T07:35:22.037Z,19.00
2019-01-17T07:36:26.437Z,17.73
2019-01-17T07:37:30.807Z,18.23
2019-01-17T07:38:35.277Z,20.17
2019-01-17T07:39:39.892Z,17.43
2019-01-17T07:40:44.394Z,19.43
2019-01-17T07:41:48.777Z,15.83
2019-01-17T07:42:53.597Z,17.30
2019-01-17T07:43:58.060Z,18.60
2019-01-17T07:45:02.457Z,18.83
2019-01-17T07:46:06.919Z,20.20
2019-01-17T07:47:11.462Z,18.13
2019-01-17T07:48:15.878Z,18.83
2019-01-17T07:49:20.257Z,19.37
2019-01-17T07:50:26.725Z,19.83
2019-01-17T07:51:31.072Z,18.83
2019-01-17T07:52:35.438Z,19.23
2019-01-17T07:53:40.325Z,21.57
2019-01-17T07:54:44.681Z,19.87
2019-01-17T07:55:49.068Z,20.00
2019-01-17T07:56:53.564Z,19.93
2019-01-17T07:57:57.910Z,17.43
2019-01-17T07:59:02.490Z,18.13
2019-01-17T08:00:09.744Z,17.47
2019-01-17T08:01:15.038Z,19.17
2019-01-17T08:02:19.526Z,21.67
2019-01-17T08:03:24.122Z,17.80
2019-01-17T08:04:28.576Z,20.10
2019-01-17T08:05:33.096Z,20.00
2019-01-17T08:06:37.575Z,19.13
2019-01-17T08:07:42.398Z,21.83
2019-01-17T08:08:46.780Z,19.87
2019-01-17T08:09:51.198Z,19.60
2019-01-17T08:10:55.673Z,19.00
2019-01-17T08:12:05.008Z,18.43
2019-01-17T08:13:06.413Z,20.17
2019-01-17T08:14:10.812Z,19.90
2019-01-17T08:15:15.629Z,20.67
2019-01-17T08:16:20.014Z,18.80
2019-01-17T08:17:24.550Z,22.93
2019-01-17T08:18:28.901Z,20.93
2019-01-17T08:19:33.338Z,20.53
2019-01-17T08:20:37.904Z,19.90
2019-01-17T08:21:42.480Z,19.43
2019-01-17T08:22:47.127Z,18.37
2019-01-17T08:23:51.564Z,18.20
2019-01-17T08:24:56.024Z,17.83
2019-01-17T08:26:00.520Z,17.97
2019-01-17T08:27:05.197Z,20.07
2019-01-17T08:28:09.578Z,17.40
2019-01-17T08:29:14.217Z,19.33
2019-01-17T08:30:21.181Z,17.30
2019-01-17T08:31:25.667Z,18.63
2019-01-17T08:32:30.064Z,18.07
2019-01-17T08:33:34.446Z,19.67
2019-01-17T08:34:39.058Z,18.50
2019-01-17T08:35:43.584Z,19.23
2019-01-17T08:36:50.106Z,19.30
2019-01-17T08:37:54.475Z,20.83
2019-01-17T08:38:58.932Z,17.63
2019-01-17T08:40:03.771Z,18.67
2019-01-17T08:41:08.396Z,17.77
2019-01-17T08:42:15.261Z,20.73
2019-01-17T08:43:19.712Z,21.53
2019-01-17T08:44:24.373Z,18.97
2019-01-17T08:45:28.993Z,20.53
2019-01-17T08:46:33.505Z,18.77
2019-01-17T08:47:37.961Z,19.67
2019-01-17T08:48:42.460Z,20.53
2019-01-17T08:49:46.920Z,21.70
2019-01-17T08:50:51.936Z,18.40
2019-01-17T08:51:56.353Z,18.90
2019-01-17T08:53:01.019Z,19.43
2019-01-17T08:54:05.823Z,19.43
2019-01-17T08:55:10.460Z,17.23
2019-01-17T08:56:15.293Z,19.30
2019-01-17T08:57:19.744Z,20.43
2019-01-17T08:58:24.460Z,19.43
2019-01-17T08:59:28.948Z,21.93
2019-01-17T09:00:33.329Z,20.03
2019-01-17T09:01:37.891Z,22.53
2019-01-17T09:02:42.495Z,17.93
2019-01-17T09:03:47.025Z,19.47
2019-01-17T09:04:51.560Z,22.33
2019-01-17T09:05:56.044Z,20.23
2019-01-17T09:07:00.529Z,20.47
2019-01-17T09:08:05.209Z,21.43
2019-01-17T09:09:10.530Z,21.90
2019-01-17T09:10:17.938Z,21.97
2019-01-17T09:11:22.556Z,23.20
2019-01-17T09:12:26.989Z,19.77
2019-01-17T09:13:31.584Z,20.87
2019-01-17T09:14:36.027Z,19.57
2019-01-17T09:15:40.564Z,19.67
2019-01-17T09:16:44.972Z,18.90
2019-01-17T09:17:49.457Z,19.20
2019-01-17T09:18:53.920Z,20.30
2019-01-17T09:19:58.433Z,18.77
2019-01-17T09:21:02.791Z,19.47
2019-01-17T09:22:07.289Z,19.77
2019-01-17T09:23:11.672Z,19.00
2019-01-17T09:24:16.122Z,18.27
2019-01-17T09:25:20.514Z,18.73
2019-01-17T09:26:24.999Z,14.53
2019-01-17T09:27:29.565Z,15.60
2019-01-17T09:28:33.960Z,15.57
2019-01-17T09:29:38.488Z,15.03
2019-01-17T09:30:42.812Z,15.20
2019-01-17T09:31:47.167Z,17.77
2019-01-17T09:32:51.774Z,15.47
2019-01-17T09:33:56.091Z,12.90
2019-01-17T09:35:00.502Z,14.07
2019-01-17T09:36:05.378Z,15.03
2019-01-17T09:37:09.963Z,13.03
2019-01-17T09:38:14.571Z,11.97
2019-01-17T09:39:19.035Z,12.67
2019-01-17T09:40:23.697Z,11.27
2019-01-17T09:41:28.306Z,13.53
2019-01-17T09:42:32.624Z,13.97
2019-01-17T09:43:37.036Z,14.50
2019-01-17T09:44:41.459Z,10.90
2019-01-17T09:45:46.039Z,13.50
2019-01-17T09:47:15.133Z,14.47
2019-01-17T09:48:19.616Z,12.63
2019-01-17T09:49:24.310Z,9.97
2019-01-17T09:50:29.025Z,10.70
2019-01-17T09:51:33.432Z,10.30
2019-01-17T09:52:38.068Z,11.07
2019-01-17T09:53:45.553Z,13.03
2019-01-17T09:54:50.573Z,14.23
2019-01-17T09:55:55.192Z,13.63
2019-01-17T09:56:59.829Z,11.93
2019-01-17T09:58:04.198Z,12.90
2019-01-17T09:59:08.641Z,11.83
2019-01-17T10:00:17.040Z,12.17
2019-01-17T10:01:22.072Z,13.17
2019-01-17T10:02:28.580Z,10.83
2019-01-17T10:03:33.051Z,10.63
2019-01-17T10:04:37.410Z,11.87
2019-01-17T10:05:41.916Z,10.43
2019-01-17T10:06:46.376Z,12.00
2019-01-17T10:07:51.053Z,11.47
2019-01-17T10:08:55.614Z,10.33
2019-01-17T10:10:00.180Z,12.83
2019-01-17T10:11:04.891Z,10.47
2019-01-17T10:12:09.479Z,10.97
2019-01-17T10:13:17.067Z,11.73
2019-01-17T10:14:21.627Z,10.77
2019-01-17T10:15:48.879Z,9.87
2019-01-17T10:17:08.658Z,9.70
2019-01-17T10:19:02.897Z,11.07
2019-01-17T10:20:42.893Z,9.23
2019-01-17T10:22:43.154Z,13.13
2019-01-17T10:24:27.826Z,12.33
2019-01-17T10:26:07.603Z,8.90
2019-01-17T10:27:47.956Z,7.43
2019-01-17T10:29:39.607Z,8.20
2019-01-17T10:31:13.144Z,7.70
2019-01-17T10:33:01.326Z,7.60
2019-01-17T10:34:48.872Z,8.80
2019-01-17T10:36:42.114Z,6.37
2019-01-17T10:38:25.252Z,11.57
2019-01-17T10:40:09.056Z,8.27
2019-01-17T10:41:47.717Z,10.83
2019-01-17T10:43:35.632Z,8.13
2019-01-17T10:45:14.643Z,8.53
2019-01-17T10:47:01.884Z,8.60
2019-01-17T10:48:51.649Z,10.00
2019-01-17T10:50:22.902Z,8.07
2019-01-17T10:52:29.518Z,10.00
2019-01-17T10:53:56.069Z,7.97
2019-01-17T10:55:53.312Z,9.40
2019-01-17T10:57:28.780Z,7.07
2019-01-17T10:59:17.468Z,7.30
2019-01-17T11:01:01.661Z,8.97
2019-01-17T11:02:41.194Z,10.43
2019-01-17T11:04:29.246Z,9.03
2019-01-17T11:06:18.980Z,8.17
2019-01-17T11:08:01.631Z,5.60
2019-01-17T11:09:31.052Z,5.13
2019-01-17T11:11:22.389Z,5.80
2019-01-17T11:13:08.065Z,4.80
2019-01-17T11:14:40.280Z,9.13
2019-01-17T11:16:22.486Z,5.73
2019-01-17T11:18:09.109Z,6.23
2019-01-17T11:19:37.689Z,6.07
2019-01-17T11:21:26.507Z,8.87
2019-01-17T11:23:14.602Z,8.10
2019-01-17T11:25:02.317Z,8.60
2019-01-17T11:26:34.414Z,6.87
2019-01-17T11:28:17.910Z,5.53
2019-01-17T11:29:50.241Z,6.37
2019-01-17T11:31:31.378Z,7.70
2019-01-17T11:33:08.563Z,6.93
2019-01-17T11:34:50.843Z,6.87
2019-01-17T11:36:07.834Z,7.47
2019-01-17T11:37:55.994Z,8.00
2019-01-17T11:39:30.650Z,9.10
2019-01-17T11:41:28.272Z,6.63
2019-01-17T11:42:51.652Z,6.37
2019-01-17T11:44:36.769Z,8.97
2019-01-17T11:46:13.115Z,8.33
2019-01-17T11:47:51.750Z,5.80
2019-01-17T11:49:40.957Z,6.00
2019-01-17T11:51:12.041Z,4.43
2019-01-17T11:52:51.326Z,7.10
2019-01-17T11:54:27.621Z,6.80
2019-01-17T11:55:39.814Z,4.20
2019-01-17T11:57:29.195Z,5.87
2019-01-17T11:59:00.082Z,4.77
2019-01-17T12:00:49.444Z,5.67
2019-01-17T12:02:21.729Z,6.17
2019-01-17T12:04:06.380Z,4.20
2019-01-17T12:05:10.860Z,7.23
2019-01-17T12:06:15.665Z,4.37
2019-01-17T12:07:20.648Z,5.20
2019-01-17T12:08:25.041Z,3.23
2019-01-17T12:09:29.465Z,3.47
2019-01-17T12:10:33.911Z,3.33
2019-01-17T12:11:38.382Z,3.47
2019-01-17T12:12:42.978Z,4.70
2019-01-17T12:13:47.616Z,3.40
2019-01-17T12:14:53.507Z,5.47
2019-01-17T12:15:57.976Z,3.27
2019-01-17T12:17:02.515Z,3.13
2019-01-17T12:18:06.997Z,3.37
2019-01-17T12:19:11.663Z,4.20
2019-01-17T12:20:16.476Z,3.67
2019-01-17T12:21:20.847Z,3.47
2019-01-17T12:22:25.400Z,4.60
2019-01-17T12:23:29.875Z,3.70
2019-01-17T12:24:34.425Z,4.00
2019-01-17T12:25:38.852Z,2.67
2019-01-17T12:26:47.410Z,3.77
2019-01-17T12:27:49.638Z,4.27
2019-01-17T12:28:54.263Z,4.03
2019-01-17T12:29:58.748Z,4.13
2019-01-17T12:31:03.128Z,3.93
2019-01-17T12:32:07.524Z,3.60
2019-01-17T12:33:12.028Z,3.33
2019-01-17T12:34:16.941Z,3.40
2019-01-17T12:35:21.541Z,4.17
2019-01-17T12:36:25.985Z,3.40
2019-01-17T12:37:30.598Z,4.00
2019-01-17T12:38:35.099Z,3.00
2019-01-17T12:39:39.621Z,3.80
2019-01-17T12:40:44.097Z,4.60
2019-01-17T12:41:48.792Z,4.20
2019-01-17T12:42:53.195Z,3.60
2019-01-17T12:43:57.652Z,3.10
2019-01-17T12:45:02.126Z,3.40
2019-01-17T12:46:06.690Z,3.00
2019-01-17T12:47:11.304Z,3.57
2019-01-17T12:48:16.121Z,3.93
2019-01-17T12:49:20.527Z,2.53
2019-01-17T12:50:24.989Z,2.20
2019-01-17T12:51:29.807Z,2.87
2019-01-17T12:52:34.254Z,2.93
2019-01-17T12:53:38.880Z,3.13
2019-01-17T12:54:43.376Z,3.03
2019-01-17T12:55:48.260Z,3.07
2019-01-17T12:56:54.149Z,3.03
2019-01-17T12:57:58.826Z,3.53
2019-01-17T12:59:03.302Z,2.90
2019-01-17T13:00:11.540Z,2.97
2019-01-17T13:01:16.172Z,3.30
2019-01-17T13:02:20.796Z,4.63
2019-01-17T13:03:25.237Z,3.00
2019-01-17T13:04:30.075Z,3.40
2019-01-17T13:05:34.992Z,4.83
2019-01-17T13:06:39.593Z,3.13
2019-01-17T13:07:44.156Z,4.20
2019-01-17T13:08:48.754Z,3.57
2019-01-17T13:09:53.169Z,3.37
2019-01-17T13:10:57.978Z,4.40
2019-01-17T13:12:02.417Z,5.17
2019-01-17T13:13:06.953Z,4.73
2019-01-17T13:14:11.484Z,3.37
2019-01-17T13:15:15.945Z,3.80
2019-01-17T13:16:20.310Z,5.20
2019-01-17T13:17:24.702Z,3.87
2019-01-17T13:18:29.144Z,5.13
2019-01-17T13:19:33.570Z,4.20
2019-01-17T13:20:38.059Z,4.00
2019-01-17T13:21:42.382Z,4.80
2019-01-17T13:22:47.120Z,4.57
2019-01-17T13:23:51.847Z,4.03
2019-01-17T13:24:56.328Z,4.90
2019-01-17T13:26:00.870Z,4.30
2019-01-17T13:27:05.633Z,4.33
2019-01-17T13:28:10.166Z,5.93
2019-01-17T13:29:14.744Z,5.73
2019-01-17T13:30:21.622Z,6.07
2019-01-17T13:31:26.313Z,4.90
2019-01-17T13:32:30.759Z,4.83
2019-01-17T13:33:35.151Z,5.93
2019-01-17T13:34:39.576Z,5.30
2019-01-17T13:35:44.100Z,5.73
2019-01-17T13:36:48.485Z,4.83
2019-01-17T13:37:52.993Z,4.20
2019-01-17T13:38:57.630Z,4.73
2019-01-17T13:40:02.066Z,4.13
2019-01-17T13:41:07.420Z,4.00
2019-01-17T13:42:12.064Z,4.63
2019-01-17T13:43:16.419Z,5.33
2019-01-17T13:44:20.799Z,5.73
2019-01-17T13:45:25.247Z,4.40
2019-01-17T13:46:29.984Z,7.47
2019-01-17T13:47:34.440Z,7.47
2019-01-17T13:48:38.910Z,4.33
2019-01-17T13:49:43.476Z,4.07
2019-01-17T13:50:47.826Z,5.50
2019-01-17T13:51:52.420Z,3.77
2019-01-17T13:52:56.820Z,3.63
2019-01-17T13:54:01.236Z,4.60
2019-01-17T13:55:06.440Z,4.93
2019-01-17T13:56:11.159Z,4.30
2019-01-17T13:57:15.666Z,3.77
2019-01-17T13:58:20.154Z,3.43
2019-01-17T13:59:24.595Z,3.20
2019-01-17T14:00:29.042Z,3.33
2019-01-17T14:01:33.503Z,4.50
2019-01-17T14:02:37.945Z,3.60
2019-01-17T14:03:42.478Z,5.50
2019-01-17T14:04:46.797Z,4.43
2019-01-17T14:05:51.804Z,7.70
2019-01-17T14:06:56.190Z,2.67
2019-01-17T14:08:00.702Z,3.30
2019-01-17T14:09:08.278Z,3.57
2019-01-17T14:10:13.197Z,3.53
2019-01-17T14:11:17.753Z,3.00
2019-01-17T14:12:22.212Z,2.83
2019-01-17T14:13:27.155Z,3.27
2019-01-17T14:14:31.595Z,2.50
2019-01-17T14:15:36.047Z,3.13
2019-01-17T14:16:40.644Z,2.47
2019-01-17T14:17:45.051Z,4.27
2019-01-17T14:18:49.688Z,2.40
2019-01-17T14:19:54.231Z,3.63
2019-01-17T14:20:58.713Z,2.87
2019-01-17T14:22:03.464Z,2.70
2019-01-17T14:23:07.834Z,2.17
2019-01-17T14:24:12.594Z,3.10
2019-01-17T14:25:16.984Z,2.30
2019-01-17T14:26:21.392Z,2.93
2019-01-17T14:27:25.838Z,2.47
2019-01-17T14:28:30.313Z,3.13
2019-01-17T14:29:34.792Z,2.23
2019-01-17T14:30:39.317Z,2.60
2019-01-17T14:31:43.841Z,3.93
2019-01-17T14:32:48.337Z,2.60
2019-01-17T14:33:52.742Z,2.87
2019-01-17T14:34:57.326Z,2.43
2019-01-17T14:36:01.713Z,2.60
2019-01-17T14:37:06.367Z,4.43
2019-01-17T14:38:10.905Z,2.03
2019-01-17T14:39:15.452Z,2.00
2019-01-17T14:40:19.883Z,1.67
2019-01-17T14:41:24.365Z,2.67
2019-01-17T14:42:28.890Z,2.33
2019-01-17T14:43:33.313Z,4.10
2019-01-17T14:44:37.692Z,2.57
2019-01-17T14:45:42.113Z,3.03
2019-01-17T14:46:46.704Z,1.20
2019-01-17T14:47:51.558Z,3.93
2019-01-17T14:48:56.175Z,3.93
2019-01-17T14:50:01.447Z,1.70
2019-01-17T14:51:06.189Z,2.50
2019-01-17T14:52:10.720Z,1.47
2019-01-17T14:53:15.521Z,3.97
2019-01-17T14:54:20.049Z,1.90
2019-01-17T14:55:24.522Z,3.90
2019-01-17T14:56:29.064Z,2.33
2019-01-17T14:57:33.721Z,3.47
2019-01-17T14:58:38.390Z,3.83
2019-01-17T14:59:42.841Z,3.57
2019-01-17T15:00:47.308Z,2.67
2019-01-17T15:01:52.518Z,3.77
2019-01-17T15:02:58.298Z,2.57
2019-01-17T15:04:03.025Z,3.83
2019-01-17T15:05:09.197Z,5.17
2019-01-17T15:06:14.076Z,4.70
2019-01-17T15:07:18.687Z,3.27
2019-01-17T15:08:23.349Z,4.57
2019-01-17T15:09:28.093Z,3.53
2019-01-17T15:10:37.993Z,3.50
2019-01-17T15:11:42.515Z,4.77
2019-01-17T15:12:47.294Z,2.83
2019-01-17T15:13:51.943Z,2.10